Tamdy, Uzbekistan
Current Conditions -  °F | °C
As of 10:00 PM on Sunday 23 Nov 2014 (Local Time) from UTSA Reporting Station
Smoke Smoke  
Wind Chill: 57°   Ceiling: 4000
Heat Index: 57°   Visibility: 2mi
Dew Point: 30°   Wind: 12mph
Humidity: 36%   Direction: 190°S
Pressure: 29.77"   Gusts: NA
Location:  41.73°N, 64.62°E
Report Text: UTSA 231700Z 19010KT 3200 FU BKN040 14/M01 Q1008 R25/CLRD70NOSIG
Loading
Personal Weather Stations






























Interactive Weather Map New forecast layout! Learn more

10-Day Weather Forecast

Advertisements
Track Severe Weather on mobile